KFMN/FMN METAR and TAF weather

Enter ICAO airport designator
Station Type Date Time Source
KFMN METAR 2020/09/18 06:53 UTC NOAA

KFMN 180653Z AUTO 06005KT 10SM CLR 12/M05 A3026 RMK AO2 SLP196 T01221050 403000122


Station Type Date Time Source
KFMN Decoded METAR 2020/09/18 06:53 UTC NOAA

FARMINGTON FOUR CORNERS, NM, United States (KFMN) 36-45N 108-14W 1685M
Sep 18, 2020 - 02:53 AM EDT / 2020.09.18 0653 UTC
Wind: from the ENE (060 degrees) at 6 MPH (5 KT):0
Visibility: 10 mile(s):0
Sky conditions: clear
Temperature: 54.0 F (12.2 C)
Dew Point: 23.0 F (-5.0 C)
Relative Humidity: 29%
Pressure (altimeter): 30.26 in. Hg (1024 hPa)
ob: KFMN 180653Z AUTO 06005KT 10SM CLR 12/M05 A3026 RMK AO2 SLP196 T01221050 403000122
cycle: 7

Station Type Date Time Source
KFMN TAF 2020/09/18 06:36 UTC NOAA

TAF KFMN 180533Z 1806/1906 09008KT P6SM SKC
FM182100 21006KT P6SM FEW120
FM190200 13008KT P6SM SCT120

Example: see airport list